Campos Novos, Brazil
Current Conditions -  °F | °C
As of 3:00 PM on Friday 31 Oct 2014 (Local Time) from SBCH Reporting Station
Few Clouds Few Clouds  
Wind Chill: 82°   Ceiling: Unl
Heat Index: 85°   Visibility: 6mi
Dew Point: 66°   Wind: 17mph
Humidity: 58%   Direction: 320°NW
Pressure: 29.91"   Gusts: NA
Location:  27.4°S, 51.22°W
Report Text: SBCH 311700Z 32015KT 9999 FEW018 28/19 Q1013
Loading
Personal Weather Stations






























Interactive Weather Map
Tropical Storm Tracking
New forecast layout! Learn more

10-Day Weather Forecast

Advertisements
Track Severe Weather on mobile